createdAt,value
2018-09-29T00:01:13.072Z,99.90
2018-09-29T00:03:41.645Z,99.90
2018-09-29T00:06:10.040Z,99.90
2018-09-29T00:08:38.411Z,99.90
2018-09-29T00:11:06.814Z,99.90
2018-09-29T00:13:35.289Z,99.90
2018-09-29T00:16:03.647Z,99.90
2018-09-29T00:18:31.994Z,99.90
2018-09-29T00:21:00.380Z,99.90
2018-09-29T00:23:28.764Z,99.90
2018-09-29T00:25:57.127Z,99.90
2018-09-29T00:28:25.481Z,99.90
2018-09-29T00:30:53.894Z,99.90
2018-09-29T00:33:22.357Z,99.90
2018-09-29T00:35:50.704Z,99.90
2018-09-29T00:38:19.088Z,99.90
2018-09-29T00:40:47.515Z,99.90
2018-09-29T00:43:16.003Z,99.90
2018-09-29T00:45:44.394Z,99.90
2018-09-29T00:48:12.764Z,99.90
2018-09-29T00:50:41.112Z,99.90
2018-09-29T00:53:09.503Z,99.90
2018-09-29T00:55:37.962Z,99.90
2018-09-29T00:58:06.402Z,99.90
2018-09-29T01:00:34.738Z,99.90
2018-09-29T01:03:03.209Z,99.90
2018-09-29T01:05:31.596Z,99.90
2018-09-29T01:07:59.972Z,99.90
2018-09-29T01:10:28.407Z,99.90
2018-09-29T01:12:56.785Z,99.90
2018-09-29T01:15:25.187Z,99.90
2018-09-29T01:17:53.526Z,99.90
2018-09-29T01:20:21.959Z,99.90
2018-09-29T01:22:50.503Z,99.90
2018-09-29T01:25:18.851Z,99.90
2018-09-29T01:27:47.234Z,99.90
2018-09-29T01:30:15.584Z,99.90
2018-09-29T01:32:43.989Z,99.90
2018-09-29T01:35:12.327Z,99.90
2018-09-29T01:37:40.700Z,99.90
2018-09-29T01:40:09.238Z,99.90
2018-09-29T01:42:37.745Z,99.90
2018-09-29T01:45:06.306Z,99.90
2018-09-29T01:47:34.699Z,99.90
2018-09-29T01:50:03.082Z,99.90
2018-09-29T01:52:31.624Z,99.90
2018-09-29T01:55:00.306Z,99.90
2018-09-29T01:57:28.844Z,99.90
2018-09-29T01:59:57.172Z,99.90
2018-09-29T02:02:25.758Z,99.90
2018-09-29T02:04:54.739Z,99.90
2018-09-29T02:07:23.135Z,99.90
2018-09-29T02:09:51.876Z,99.90
2018-09-29T02:12:20.357Z,99.90
2018-09-29T02:14:48.838Z,99.90
2018-09-29T02:17:17.369Z,99.90
2018-09-29T02:19:45.878Z,99.90
2018-09-29T02:22:14.410Z,99.90
2018-09-29T02:24:42.874Z,99.90
2018-09-29T02:27:11.327Z,99.90
2018-09-29T02:29:39.925Z,99.90
2018-09-29T02:32:08.317Z,99.90
2018-09-29T02:34:36.643Z,99.90
2018-09-29T02:37:05.021Z,99.90
2018-09-29T02:39:33.440Z,99.90
2018-09-29T02:42:01.818Z,99.90
2018-09-29T02:44:30.212Z,99.90
2018-09-29T02:46:58.600Z,99.90
2018-09-29T02:49:26.977Z,99.90
2018-09-29T02:51:55.337Z,99.90
2018-09-29T02:54:23.725Z,99.90
2018-09-29T02:56:52.167Z,99.90
2018-09-29T02:59:20.532Z,99.90
2018-09-29T03:01:48.959Z,99.90
2018-09-29T03:04:17.600Z,99.90
2018-09-29T03:06:46.000Z,99.90
2018-09-29T03:09:14.475Z,99.90
2018-09-29T03:11:42.822Z,99.90
2018-09-29T03:14:11.360Z,99.90
2018-09-29T03:16:39.724Z,99.90
2018-09-29T03:19:08.110Z,99.90
2018-09-29T03:21:36.511Z,99.90
2018-09-29T03:24:05.003Z,99.90
2018-09-29T03:26:33.495Z,99.90
2018-09-29T03:29:01.874Z,99.90
2018-09-29T03:31:30.279Z,99.90
2018-09-29T03:33:58.653Z,99.90
2018-09-29T03:36:27.044Z,99.90
2018-09-29T03:38:55.435Z,99.90
2018-09-29T03:41:23.787Z,99.90
2018-09-29T03:43:52.270Z,99.90
2018-09-29T03:46:21.002Z,99.90
2018-09-29T03:48:49.393Z,99.90
2018-09-29T03:51:17.766Z,99.90
2018-09-29T03:53:46.381Z,99.90
2018-09-29T03:56:14.810Z,99.90
2018-09-29T03:58:43.206Z,99.90
2018-09-29T04:01:18.910Z,99.90
2018-09-29T04:03:49.915Z,99.90
2018-09-29T04:06:18.388Z,99.90
2018-09-29T04:08:46.798Z,99.90
2018-09-29T04:11:15.157Z,99.90
2018-09-29T04:13:43.843Z,99.90
2018-09-29T04:16:12.336Z,99.90
2018-09-29T04:18:40.729Z,99.90
2018-09-29T04:21:09.135Z,99.90
2018-09-29T04:23:37.967Z,99.90
2018-09-29T04:26:06.513Z,99.90
2018-09-29T04:28:34.874Z,99.90
2018-09-29T04:31:03.201Z,99.90
2018-09-29T04:33:32.074Z,99.90
2018-09-29T04:36:00.438Z,99.90
2018-09-29T04:38:28.777Z,99.90
2018-09-29T04:40:57.192Z,99.90
2018-09-29T04:43:25.746Z,99.90
2018-09-29T04:45:54.127Z,99.90
2018-09-29T04:48:22.513Z,99.90
2018-09-29T04:50:50.849Z,99.90
2018-09-29T04:53:19.237Z,99.90
2018-09-29T04:55:47.596Z,99.90
2018-09-29T04:58:16.101Z,99.90
2018-09-29T05:00:44.454Z,99.90
2018-09-29T05:03:12.977Z,99.90
2018-09-29T05:05:41.330Z,99.90
2018-09-29T05:08:09.666Z,99.90
2018-09-29T05:10:38.055Z,99.90
2018-09-29T05:13:06.439Z,99.90
2018-09-29T05:15:34.760Z,99.90
2018-09-29T05:18:03.134Z,99.90
2018-09-29T05:20:31.524Z,99.90
2018-09-29T05:22:59.951Z,99.90
2018-09-29T05:25:28.460Z,99.90
2018-09-29T05:27:56.812Z,99.90
2018-09-29T05:30:25.247Z,99.90
2018-09-29T05:32:53.676Z,99.90
2018-09-29T05:35:21.997Z,99.90
2018-09-29T05:37:50.312Z,99.90
2018-09-29T05:40:18.660Z,99.90
2018-09-29T05:42:47.333Z,99.90
2018-09-29T05:45:15.716Z,99.90
2018-09-29T05:47:44.103Z,99.90
2018-09-29T05:50:12.533Z,99.90
2018-09-29T05:52:40.922Z,99.90
2018-09-29T05:55:09.261Z,99.90
2018-09-29T05:57:37.589Z,99.90
2018-09-29T06:00:05.976Z,99.90
2018-09-29T06:02:34.460Z,99.90
2018-09-29T06:05:02.766Z,99.90
2018-09-29T06:07:31.395Z,99.90
2018-09-29T06:09:59.716Z,99.90
2018-09-29T06:12:28.242Z,99.90
2018-09-29T06:14:56.565Z,99.90
2018-09-29T06:17:24.945Z,99.90
2018-09-29T06:19:53.330Z,99.90
2018-09-29T06:22:21.710Z,99.90
2018-09-29T06:24:50.088Z,99.90
2018-09-29T06:27:18.448Z,99.90
2018-09-29T06:29:46.782Z,99.90
2018-09-29T06:32:15.499Z,99.90
2018-09-29T06:34:43.854Z,99.90
2018-09-29T06:37:12.243Z,99.90
2018-09-29T06:39:40.585Z,99.90
2018-09-29T06:42:09.083Z,99.90
2018-09-29T06:44:37.421Z,99.90
2018-09-29T06:47:06.063Z,99.90
2018-09-29T06:49:34.401Z,99.90
2018-09-29T06:52:03.766Z,99.90
2018-09-29T06:54:32.445Z,99.90
2018-09-29T06:57:00.757Z,99.90
2018-09-29T06:59:29.080Z,99.90
2018-09-29T07:01:57.581Z,99.90
2018-09-29T07:04:26.122Z,99.90
2018-09-29T07:06:54.443Z,99.90
2018-09-29T07:09:22.784Z,99.90
2018-09-29T07:11:51.119Z,99.90
2018-09-29T07:14:19.451Z,99.90
2018-09-29T07:16:47.808Z,99.90
2018-09-29T07:19:16.124Z,99.90
2018-09-29T07:21:44.504Z,99.90
2018-09-29T07:24:13.009Z,99.90
2018-09-29T07:26:41.323Z,99.90
2018-09-29T07:29:09.745Z,99.90
2018-09-29T07:31:38.297Z,99.90
2018-09-29T07:34:06.795Z,99.90
2018-09-29T07:36:35.174Z,99.90
2018-09-29T07:39:04.747Z,99.90
2018-09-29T07:41:33.104Z,99.90
2018-09-29T07:44:01.520Z,99.90
2018-09-29T07:46:29.921Z,99.90
2018-09-29T07:48:58.256Z,99.90
2018-09-29T07:51:26.572Z,99.90
2018-09-29T07:53:55.936Z,99.90
2018-09-29T07:56:24.289Z,99.90
2018-09-29T07:58:52.614Z,99.90
2018-09-29T08:01:20.968Z,99.90
2018-09-29T08:03:49.270Z,99.90
2018-09-29T08:06:17.698Z,99.90
2018-09-29T08:08:47.010Z,99.90
2018-09-29T08:11:15.381Z,99.90
2018-09-29T08:13:43.950Z,99.90
2018-09-29T08:16:12.347Z,99.90
2018-09-29T08:18:46.985Z,99.90
2018-09-29T08:21:15.374Z,99.90
2018-09-29T08:23:43.815Z,99.90
2018-09-29T08:26:12.123Z,99.90
2018-09-29T08:28:40.506Z,99.90
2018-09-29T08:31:08.945Z,99.90
2018-09-29T08:33:37.488Z,99.90
2018-09-29T08:36:05.871Z,99.90
2018-09-29T08:38:34.245Z,99.90
2018-09-29T08:41:02.644Z,99.90
2018-09-29T08:43:32.088Z,99.90
2018-09-29T08:46:00.498Z,99.90
2018-09-29T08:48:28.856Z,99.90
2018-09-29T08:50:57.205Z,99.90
2018-09-29T08:53:25.571Z,99.90
2018-09-29T08:55:53.888Z,99.90
2018-09-29T08:58:22.209Z,99.90
2018-09-29T09:00:50.542Z,99.90
2018-09-29T09:03:18.888Z,99.90
2018-09-29T09:05:47.296Z,99.90
2018-09-29T09:08:15.641Z,99.90
2018-09-29T09:10:44.048Z,99.90
2018-09-29T09:13:12.592Z,99.90
2018-09-29T09:15:41.026Z,99.90
2018-09-29T09:18:09.350Z,99.90
2018-09-29T09:20:37.695Z,99.90
2018-09-29T09:23:06.498Z,99.90
2018-09-29T09:25:34.879Z,99.90
2018-09-29T09:28:03.244Z,99.90
2018-09-29T09:30:31.597Z,99.90
2018-09-29T09:32:59.960Z,99.90
2018-09-29T09:35:28.313Z,99.90
2018-09-29T09:37:56.685Z,99.90
2018-09-29T09:40:25.036Z,99.90
2018-09-29T09:42:54.671Z,99.90
2018-09-29T09:45:23.094Z,99.90
2018-09-29T09:47:51.445Z,99.90
2018-09-29T09:50:19.747Z,99.90
2018-09-29T09:52:48.258Z,99.90
2018-09-29T09:55:16.686Z,99.90
2018-09-29T09:57:45.018Z,99.90
2018-09-29T10:00:14.049Z,99.90
2018-09-29T10:02:46.840Z,99.90
2018-09-29T10:05:15.219Z,99.90
2018-09-29T10:07:43.599Z,99.90
2018-09-29T10:10:11.936Z,99.90
2018-09-29T10:12:40.334Z,99.90
2018-09-29T10:15:09.013Z,99.90
2018-09-29T10:17:37.448Z,99.90
2018-09-29T10:20:06.171Z,99.90
2018-09-29T10:22:34.790Z,99.90
2018-09-29T10:25:03.171Z,99.90
2018-09-29T10:27:31.633Z,99.90
2018-09-29T10:29:59.993Z,99.90
2018-09-29T10:32:28.479Z,99.90
2018-09-29T10:34:56.980Z,99.90
2018-09-29T10:37:25.353Z,99.90
2018-09-29T10:39:53.735Z,99.90
2018-09-29T10:42:22.728Z,99.90
2018-09-29T10:44:51.121Z,99.90
2018-09-29T10:47:19.534Z,99.90
2018-09-29T10:49:47.986Z,99.90
2018-09-29T10:52:16.577Z,99.90
2018-09-29T10:54:45.818Z,99.90
2018-09-29T10:57:14.225Z,99.90
2018-09-29T10:59:42.630Z,99.90
2018-09-29T11:02:12.116Z,99.90
2018-09-29T11:04:40.782Z,99.90
2018-09-29T11:07:09.259Z,99.90
2018-09-29T11:09:37.602Z,99.90
2018-09-29T11:12:06.250Z,99.90
2018-09-29T11:14:34.654Z,99.90
2018-09-29T11:17:03.098Z,99.90
2018-09-29T11:19:31.484Z,99.90
2018-09-29T11:21:59.880Z,99.90
2018-09-29T11:24:28.259Z,99.90
2018-09-29T11:26:56.827Z,99.90
2018-09-29T11:29:25.238Z,99.90
2018-09-29T11:31:54.177Z,99.90
2018-09-29T11:34:22.727Z,99.90
2018-09-29T11:36:51.154Z,99.90
2018-09-29T11:39:19.583Z,99.90
2018-09-29T11:41:47.956Z,99.90
2018-09-29T11:44:16.389Z,99.90
2018-09-29T11:46:44.745Z,99.90
2018-09-29T11:49:13.125Z,99.30
2018-09-29T11:51:41.495Z,99.50
2018-09-29T11:54:09.887Z,98.90
2018-09-29T11:56:38.276Z,98.70
2018-09-29T11:59:06.670Z,99.30
2018-09-29T12:01:35.285Z,99.10
2018-09-29T12:04:03.874Z,98.70
2018-09-29T12:06:32.360Z,98.90
2018-09-29T12:09:00.957Z,98.20
2018-09-29T12:11:29.330Z,97.40
2018-09-29T12:13:57.735Z,98.00
2018-09-29T12:16:26.134Z,98.40
2018-09-29T12:18:54.580Z,98.10
2018-09-29T12:21:22.989Z,97.40
2018-09-29T12:23:52.053Z,96.80
2018-09-29T12:26:20.472Z,97.00
2018-09-29T12:28:48.907Z,97.80
2018-09-29T12:31:17.313Z,97.80
2018-09-29T12:33:45.878Z,96.80
2018-09-29T12:36:14.284Z,97.40
2018-09-29T12:38:43.336Z,96.70
2018-09-29T12:41:11.690Z,95.80
2018-09-29T12:43:40.113Z,96.70
2018-09-29T12:46:08.486Z,97.50
2018-09-29T12:48:36.946Z,96.20
2018-09-29T12:51:05.291Z,96.70
2018-09-29T12:53:33.978Z,95.90
2018-09-29T12:56:02.350Z,96.20
2018-09-29T12:58:30.680Z,97.40
2018-09-29T13:00:59.170Z,97.60
2018-09-29T13:03:28.941Z,97.20
2018-09-29T13:05:57.351Z,97.80
2018-09-29T13:08:25.819Z,98.00
2018-09-29T13:10:54.229Z,97.60
2018-09-29T13:13:22.557Z,97.60
2018-09-29T13:15:51.603Z,97.60
2018-09-29T13:18:19.957Z,97.80
2018-09-29T13:20:48.313Z,98.20
2018-09-29T13:23:17.401Z,97.90
2018-09-29T13:25:45.799Z,97.50
2018-09-29T13:28:14.253Z,97.80
2018-09-29T13:30:42.587Z,97.30
2018-09-29T13:33:11.109Z,97.10
2018-09-29T13:35:39.502Z,96.30
2018-09-29T13:38:08.165Z,97.40
2018-09-29T13:40:36.568Z,99.40
2018-09-29T13:43:05.277Z,99.90
2018-09-29T13:45:33.709Z,99.90
2018-09-29T13:48:02.168Z,99.90
2018-09-29T13:50:30.641Z,99.90
2018-09-29T13:53:00.076Z,99.90
2018-09-29T13:55:28.508Z,99.60
2018-09-29T13:57:56.974Z,99.10
2018-09-29T14:00:25.364Z,97.90
2018-09-29T14:02:54.414Z,98.00
2018-09-29T14:05:22.797Z,97.50
2018-09-29T14:07:51.365Z,98.10
2018-09-29T14:10:19.695Z,98.10
2018-09-29T14:12:48.194Z,96.60
2018-09-29T14:15:16.691Z,95.90
2018-09-29T14:17:47.554Z,95.70
2018-09-29T14:20:16.436Z,96.90
2018-09-29T14:22:44.833Z,96.10
2018-09-29T14:25:13.168Z,95.60
2018-09-29T14:27:41.544Z,95.30
2018-09-29T14:30:09.988Z,96.00
2018-09-29T14:32:38.378Z,96.00
2018-09-29T14:35:06.817Z,95.90
2018-09-29T14:37:35.233Z,95.70
2018-09-29T14:40:03.581Z,95.90
2018-09-29T14:42:32.039Z,95.80
2018-09-29T14:45:00.455Z,95.30
2018-09-29T14:47:28.775Z,95.90
2018-09-29T14:49:57.204Z,94.60
2018-09-29T14:52:26.405Z,94.80
2018-09-29T14:54:54.682Z,95.90
2018-09-29T14:57:23.057Z,96.90
2018-09-29T14:59:51.507Z,97.70
2018-09-29T15:02:19.981Z,98.20
2018-09-29T15:04:48.350Z,98.90
2018-09-29T15:07:16.747Z,98.90
2018-09-29T15:09:45.126Z,98.30
2018-09-29T15:12:13.631Z,98.90
2018-09-29T15:14:41.990Z,98.60
2018-09-29T15:17:10.344Z,98.10
2018-09-29T15:19:38.749Z,98.40
2018-09-29T15:22:07.229Z,97.60
2018-09-29T15:24:35.604Z,97.40
2018-09-29T15:27:03.998Z,96.70
2018-09-29T15:29:32.479Z,96.30
2018-09-29T15:32:01.202Z,96.60
2018-09-29T15:34:29.663Z,95.70
2018-09-29T15:36:58.073Z,96.60
2018-09-29T15:39:26.427Z,95.90
2018-09-29T15:41:54.776Z,95.70
2018-09-29T15:44:23.262Z,95.80
2018-09-29T15:46:51.609Z,96.00
2018-09-29T15:49:20.696Z,95.20
2018-09-29T15:51:49.109Z,96.00
2018-09-29T15:54:17.440Z,96.50
2018-09-29T15:56:45.846Z,97.20
2018-09-29T15:59:14.255Z,97.60
2018-09-29T16:01:42.722Z,97.80
2018-09-29T16:04:11.152Z,98.40
2018-09-29T16:06:46.072Z,98.70
2018-09-29T16:09:14.472Z,99.30
2018-09-29T16:11:42.856Z,99.20
2018-09-29T16:14:11.399Z,99.40
2018-09-29T16:16:39.831Z,99.60
2018-09-29T16:19:08.255Z,99.90
2018-09-29T16:21:36.708Z,99.80
2018-09-29T16:24:05.144Z,99.30
2018-09-29T16:26:34.082Z,99.90
2018-09-29T16:29:02.670Z,99.90
2018-09-29T16:31:31.224Z,99.90
2018-09-29T16:33:59.758Z,99.90
2018-09-29T16:36:28.225Z,99.90
2018-09-29T16:38:56.645Z,99.90
2018-09-29T16:41:24.998Z,99.90
2018-09-29T16:43:54.388Z,99.90
2018-09-29T16:46:22.817Z,99.90
2018-09-29T16:48:51.286Z,99.90
2018-09-29T16:51:19.693Z,99.90
2018-09-29T16:53:48.035Z,99.90
2018-09-29T16:56:16.408Z,99.90
2018-09-29T16:58:44.943Z,99.90
2018-09-29T17:01:13.342Z,99.90
2018-09-29T17:03:41.984Z,99.90
2018-09-29T17:06:10.383Z,99.90
2018-09-29T17:08:38.771Z,99.90
2018-09-29T17:11:07.184Z,99.90
2018-09-29T17:13:35.870Z,99.90
2018-09-29T17:16:04.484Z,99.90
2018-09-29T17:18:32.872Z,99.90
2018-09-29T17:21:01.393Z,99.90
2018-09-29T17:23:29.729Z,99.90
2018-09-29T17:25:58.171Z,99.90
2018-09-29T17:28:26.673Z,99.90
2018-09-29T17:30:56.157Z,99.90
2018-09-29T17:33:24.981Z,99.90
2018-09-29T17:35:53.549Z,99.90
2018-09-29T17:38:21.942Z,99.90
2018-09-29T17:40:50.300Z,99.90
2018-09-29T17:43:18.766Z,99.90
2018-09-29T17:45:47.233Z,99.90
2018-09-29T17:48:16.132Z,99.90
2018-09-29T17:50:44.879Z,99.90
2018-09-29T17:53:13.265Z,99.90
2018-09-29T17:55:41.693Z,99.90
2018-09-29T17:58:10.106Z,99.90
2018-09-29T18:00:38.434Z,99.90
2018-09-29T18:03:07.006Z,99.90
2018-09-29T18:05:35.507Z,99.90
2018-09-29T18:08:03.965Z,99.90
2018-09-29T18:10:32.417Z,99.90
2018-09-29T18:13:00.954Z,99.90
2018-09-29T18:15:29.408Z,99.90
2018-09-29T18:17:57.786Z,99.90
2018-09-29T18:20:26.136Z,99.90
2018-09-29T18:22:54.559Z,99.90
2018-09-29T18:25:22.926Z,99.90
2018-09-29T18:27:51.274Z,99.90
2018-09-29T18:30:19.728Z,99.90
2018-09-29T18:32:48.134Z,99.90
2018-09-29T18:35:16.487Z,99.90
2018-09-29T18:37:44.840Z,99.90
2018-09-29T18:40:13.205Z,99.90
2018-09-29T18:42:41.563Z,99.90
2018-09-29T18:45:09.979Z,99.90
2018-09-29T18:47:38.327Z,99.90
2018-09-29T18:50:07.455Z,99.90
2018-09-29T18:52:35.996Z,99.90
2018-09-29T18:55:04.409Z,99.90
2018-09-29T18:57:32.878Z,99.90
2018-09-29T19:00:01.128Z,99.90
2018-09-29T19:02:29.690Z,99.90
2018-09-29T19:04:58.028Z,99.90
2018-09-29T19:07:26.417Z,99.90
2018-09-29T19:09:54.761Z,99.90
2018-09-29T19:12:23.252Z,99.90
2018-09-29T19:14:51.643Z,99.90
2018-09-29T19:17:19.985Z,99.90
2018-09-29T19:19:48.479Z,99.90
2018-09-29T19:22:17.707Z,99.90
2018-09-29T19:24:47.735Z,99.90
2018-09-29T19:27:17.557Z,99.90
2018-09-29T19:29:45.931Z,99.90
2018-09-29T19:32:14.371Z,99.90
2018-09-29T19:34:42.779Z,99.90
2018-09-29T19:37:11.188Z,99.90
2018-09-29T19:39:39.563Z,99.90
2018-09-29T19:42:08.041Z,99.90
2018-09-29T19:44:37.095Z,99.90
2018-09-29T19:47:05.495Z,99.90
2018-09-29T19:49:33.872Z,99.90
2018-09-29T19:52:02.442Z,99.90
2018-09-29T19:54:31.868Z,99.90
2018-09-29T19:57:01.159Z,99.90
2018-09-29T19:59:29.603Z,99.90
2018-09-29T20:01:58.208Z,99.90
2018-09-29T20:04:26.543Z,99.90
2018-09-29T20:06:55.582Z,99.90
2018-09-29T20:09:23.996Z,99.90
2018-09-29T20:11:52.450Z,99.90
2018-09-29T20:14:20.855Z,99.90
2018-09-29T20:16:49.365Z,99.90
2018-09-29T20:19:17.749Z,99.90
2018-09-29T20:21:46.156Z,99.90
2018-09-29T20:24:14.724Z,99.90
2018-09-29T20:26:43.081Z,99.90
2018-09-29T20:29:11.424Z,99.90
2018-09-29T20:31:39.848Z,99.90
2018-09-29T20:34:08.354Z,99.90
2018-09-29T20:36:36.858Z,99.90
2018-09-29T20:39:07.683Z,99.90
2018-09-29T20:41:36.098Z,99.90
2018-09-29T20:44:04.578Z,99.90
2018-09-29T20:46:33.784Z,99.90
2018-09-29T20:49:02.117Z,99.90
2018-09-29T20:51:30.464Z,99.90
2018-09-29T20:53:58.872Z,99.90
2018-09-29T20:56:27.221Z,99.90
2018-09-29T20:58:55.625Z,99.90
2018-09-29T21:01:24.039Z,99.90
2018-09-29T21:03:52.412Z,99.90
2018-09-29T21:06:20.784Z,99.90
2018-09-29T21:08:49.134Z,99.90
2018-09-29T21:11:18.113Z,99.90
2018-09-29T21:13:46.559Z,99.90
2018-09-29T21:16:15.006Z,99.90
2018-09-29T21:18:43.408Z,99.90
2018-09-29T21:21:11.783Z,99.90
2018-09-29T21:23:40.322Z,99.90
2018-09-29T21:26:08.716Z,99.90
2018-09-29T21:28:37.098Z,99.90
2018-09-29T21:31:05.615Z,99.90
2018-09-29T21:33:34.139Z,99.90
2018-09-29T21:36:02.597Z,99.90
2018-09-29T21:38:30.974Z,99.90
2018-09-29T21:40:59.374Z,99.90
2018-09-29T21:43:27.866Z,99.90
2018-09-29T21:45:56.206Z,99.90
2018-09-29T21:48:24.584Z,99.90
2018-09-29T21:50:52.935Z,99.90
2018-09-29T21:53:21.414Z,99.90
2018-09-29T21:55:49.775Z,99.90
2018-09-29T21:58:18.112Z,99.90
2018-09-29T22:00:46.569Z,99.90
2018-09-29T22:03:15.866Z,99.90
2018-09-29T22:05:44.865Z,99.90
2018-09-29T22:08:13.330Z,99.90
2018-09-29T22:10:41.710Z,99.90
2018-09-29T22:13:10.308Z,99.90
2018-09-29T22:15:38.715Z,99.90
2018-09-29T22:18:07.087Z,99.90
2018-09-29T22:20:35.475Z,99.90
2018-09-29T22:23:04.015Z,99.90
2018-09-29T22:25:32.387Z,99.90
2018-09-29T22:28:00.826Z,99.90
2018-09-29T22:30:29.228Z,99.90
2018-09-29T22:32:57.630Z,99.90
2018-09-29T22:35:26.143Z,99.90
2018-09-29T22:37:54.528Z,99.90
2018-09-29T22:40:22.923Z,99.90
2018-09-29T22:42:51.476Z,99.90
2018-09-29T22:45:19.842Z,99.90
2018-09-29T22:47:48.246Z,99.90
2018-09-29T22:50:16.650Z,99.90
2018-09-29T22:52:45.085Z,99.90
2018-09-29T22:55:13.501Z,99.90
2018-09-29T22:57:41.896Z,99.90
2018-09-29T23:00:10.183Z,99.90
2018-09-29T23:02:38.606Z,99.90
2018-09-29T23:05:07.920Z,99.90
2018-09-29T23:07:36.270Z,99.90
2018-09-29T23:10:04.729Z,99.90
2018-09-29T23:12:33.140Z,99.90
2018-09-29T23:15:01.532Z,99.90
2018-09-29T23:17:29.896Z,99.90
2018-09-29T23:19:58.242Z,99.90
2018-09-29T23:22:26.655Z,99.90
2018-09-29T23:24:55.031Z,99.90
2018-09-29T23:27:23.498Z,99.90
2018-09-29T23:29:51.857Z,99.90
2018-09-29T23:32:20.237Z,99.90
2018-09-29T23:34:48.564Z,99.90
2018-09-29T23:37:16.961Z,99.90
2018-09-29T23:39:45.334Z,99.90
2018-09-29T23:42:13.934Z,99.90
2018-09-29T23:44:42.377Z,99.90
2018-09-29T23:47:10.764Z,99.90
2018-09-29T23:49:39.078Z,99.90
2018-09-29T23:56:42.393Z,99.90
2018-09-29T23:59:10.719Z,99.90
